Impacts METAR Board
IDs:

KLAX - Los Angeles Intl, CA, US

Updated at: 0600 UTC 11 Dec 2018
Potential Impact None Slight Moderate High
Time 10/18Z 10/19Z 10/20Z 10/21Z 10/22Z 10/23Z 11/00Z 11/01Z 11/02Z 11/03Z 11/04Z 11/05Z 11/06Z
Temp65 66 66 64 63 63 62 63 63 60 61 60 61
Dewpt43 43 43 53 52 53 53 52 53 55 53 53 54
Altim30.09 30.08 30.05 30.03 30.02 30.01 30.01 30.00 30.01 30.02 30.02 30.03 30.04
VIS10 10 10 10 10 10 10 10 10 10 10 10 10
CIG180 190 180 180 180 150 150 150 150 150 150 -- 150
CoverBKNBKNBKNBKNBKNBKNBKNBKNBKNBKNBKNSCTBKN
FltCatVFRVFRVFRVFRVFRVFRVFRVFRVFRVFRVFRVFRVFR
WX--------------------------
WDir6002302603002402601900250000
WSpd4 0 3 8 8 5 6 3 0 5 0 0 0
WGst-- -- -- -- -- -- -- -- -- -- -- -- --
Raw hourly METARs
KLAX 101753Z 06004KT 10SM FEW027 SCT095 SCT150 BKN180 18/06 A3009 RMK AO2 SLP190 T01830061 10183 20122 58001
KLAX 101853Z 00000KT 10SM FEW028 SCT100 SCT160 BKN190 19/06 A3008 RMK AO2 SLP184 T01890061
KLAX 101953Z 23003KT 10SM FEW030 SCT110 BKN180 BKN220 19/06 A3005 RMK AO2 SLP174 T01890061
KLAX 102053Z 26008KT 10SM FEW032 SCT120 BKN180 BKN250 18/12 A3003 RMK AO2 SLP169 T01780117 57021
KLAX 102153Z 30008KT 10SM FEW035 SCT120 BKN180 BKN250 17/11 A3002 RMK AO2 SLP164 T01720111
KLAX 102253Z 24005KT 10SM BKN150 BKN200 17/12 A3001 RMK AO2 SLP161 T01720117
KLAX 102353Z 26006KT 10SM BKN150 BKN200 17/12 A3001 RMK AO2 SLP162 T01670117 10200 20167 56008
KLAX 110053Z 19003KT 10SM BKN150 17/11 A3000 RMK AO2 SLP156 T01720111
KLAX 110153Z 00000KT 10SM BKN150 17/12 A3001 RMK AO2 SLP163 T01720117
KLAX 110253Z 25005KT 10SM BKN150 16/13 A3002 RMK AO2 SLP166 T01560128 53004
KLAX 110353Z 00000KT 10SM BKN150 16/12 A3002 RMK AO2 SLP163 T01610117
KLAX 110453Z 00000KT 10SM SCT150 16/12 A3003 RMK AO2 SLP166 T01560117
KLAX 110553Z 00000KT 10SM BKN150 16/12 A3004 RMK AO2 SLP169 T01610122 10172 20156 53004



Page loaded:  06:40 UTC  |   10:40 PM Pacific  |   11:40 PM Mountain  |   12:40 AM Central  |   01:40 AM Eastern

 

ADVISORIES

FORECASTS

FORECASTS

OBSERVATIONS

USER TOOLS

ABOUT US